Time,TemperatureF,DewpointF,PressureIn,WindDirection,WindDirectionDegrees,WindSpeedMPH,WindSpeedGustMPH,Humidity,HourlyPrecipIn,Conditions,Clouds,dailyrainin,SoftwareType,DateUTC
2013-02-12 00:06:00,32.5,31.2,29.63,SW,225,7.3,-999.0,95,-99.99,,,0.00,Acu-Link.com,2013-02-12 05:06:00,
2013-02-12 00:22:00,32.5,31.2,29.63,SW,225,5.3,-999.0,95,-99.99,,,0.00,Acu-Link.com,2013-02-12 05:22:00,
2013-02-12 00:37:00,32.7,30.9,29.64,West,270,6.8,-999.0,93,-99.99,,,0.00,Acu-Link.com,2013-02-12 05:37:00,
2013-02-12 00:52:00,33.1,30.5,29.65,WSW,247,6.3,-999.0,90,-99.99,,,0.00,Acu-Link.com,2013-02-12 05:52:00,
2013-02-12 01:08:00,33.3,30.7,29.64,SSW,202,6.8,-999.0,90,-99.99,,,0.00,Acu-Link.com,2013-02-12 06:08:00,
2013-02-12 01:23:00,33.4,30.2,29.65,SSW,202,9.9,-999.0,88,-99.99,,,0.00,Acu-Link.com,2013-02-12 06:23:00,
2013-02-12 01:38:00,33.4,30.0,29.65,WSW,247,4.7,-999.0,87,-99.99,,,0.00,Acu-Link.com,2013-02-12 06:38:00,
2013-02-12 01:53:00,33.4,30.0,29.66,SW,225,6.8,-999.0,87,-99.99,,,0.00,Acu-Link.com,2013-02-12 06:53:00,
2013-02-12 02:08:00,33.4,29.7,29.66,WSW,247,6.8,-999.0,86,-99.99,,,0.00,Acu-Link.com,2013-02-12 07:08:00,
2013-02-12 02:23:00,33.4,29.7,29.67,WNW,292,6.8,-999.0,86,-99.99,,,0.00,Acu-Link.com,2013-02-12 07:23:00,
2013-02-12 02:38:00,33.4,29.7,29.68,SW,225,4.7,-999.0,86,-99.99,,,0.00,Acu-Link.com,2013-02-12 07:38:00,
2013-02-12 02:54:00,33.4,29.7,29.68,West,270,5.8,-999.0,86,-99.99,,,0.00,Acu-Link.com,2013-02-12 07:54:00,
2013-02-12 03:09:00,33.4,29.7,29.67,SSW,202,5.8,-999.0,86,-99.99,,,0.00,Acu-Link.com,2013-02-12 08:09:00,
2013-02-12 03:25:00,33.4,29.7,29.68,WNW,292,5.8,-999.0,86,-99.99,,,0.00,Acu-Link.com,2013-02-12 08:25:00,
2013-02-12 03:40:00,33.4,29.7,29.68,SW,225,5.3,-999.0,86,-99.99,,,0.00,Acu-Link.com,2013-02-12 08:40:00,
2013-02-12 03:55:00,33.4,29.7,29.69,West,270,6.8,-999.0,86,-99.99,,,0.00,Acu-Link.com,2013-02-12 08:55:00,
2013-02-12 04:18:00,33.4,29.7,29.69,WSW,247,8.3,-999.0,86,-99.99,,,0.00,Acu-Link.com,2013-02-12 09:18:00,
2013-02-12 04:34:00,33.4,29.7,29.71,West,270,6.8,-999.0,86,-99.99,,,0.00,Acu-Link.com,2013-02-12 09:34:00,
2013-02-12 04:49:00,33.3,29.6,29.71,West,270,5.3,-999.0,86,-99.99,,,0.00,Acu-Link.com,2013-02-12 09:49:00,
2013-02-12 05:04:00,33.3,29.6,29.72,SSW,202,7.8,-999.0,86,-99.99,,,0.00,Acu-Link.com,2013-02-12 10:04:00,
2013-02-12 05:19:00,33.3,29.6,29.73,West,270,8.9,-999.0,86,-99.99,,,0.00,Acu-Link.com,2013-02-12 10:19:00,
2013-02-12 05:34:00,33.3,29.6,29.74,South,180,3.2,-999.0,86,-99.99,,,0.00,Acu-Link.com,2013-02-12 10:34:00,
2013-02-12 05:50:00,33.3,29.6,29.73,West,270,6.8,-999.0,86,-99.99,,,0.00,Acu-Link.com,2013-02-12 10:50:00,
2013-02-12 06:05:00,33.4,29.1,29.74,SSW,202,3.7,-999.0,84,-99.99,,,0.00,Acu-Link.com,2013-02-12 11:05:00,
2013-02-12 06:20:00,33.4,29.1,29.74,SW,225,5.8,-999.0,84,-99.99,,,0.00,Acu-Link.com,2013-02-12 11:20:00,
2013-02-12 06:35:00,33.3,29.0,29.76,WSW,247,4.7,-999.0,84,-99.99,,,0.00,Acu-Link.com,2013-02-12 11:35:00,
2013-02-12 06:51:00,33.3,28.7,29.76,West,270,3.2,-999.0,83,-99.99,,,0.00,Acu-Link.com,2013-02-12 11:51:00,
2013-02-12 07:06:00,33.3,28.7,29.76,SW,225,6.3,-999.0,83,-99.99,,,0.00,Acu-Link.com,2013-02-12 12:06:00,
2013-02-12 07:21:00,33.1,28.5,29.77,SW,225,2.7,-999.0,83,-99.99,,,0.00,Acu-Link.com,2013-02-12 12:21:00,
2013-02-12 07:36:00,32.9,28.6,29.78,WSW,247,3.7,-999.0,84,-99.99,,,0.00,Acu-Link.com,2013-02-12 12:36:00,
2013-02-12 07:51:00,32.9,28.6,29.79,SW,225,6.3,-999.0,84,-99.99,,,0.00,Acu-Link.com,2013-02-12 12:51:00,
2013-02-12 08:07:00,33.1,28.5,29.78,SW,225,3.7,-999.0,83,-99.99,,,0.00,Acu-Link.com,2013-02-12 13:07:00,
2013-02-12 08:22:00,33.1,28.5,29.79,WSW,247,2.7,-999.0,83,-99.99,,,0.00,Acu-Link.com,2013-02-12 13:22:00,
2013-02-12 08:37:00,33.3,29.0,29.79,West,270,6.8,-999.0,84,-99.99,,,0.00,Acu-Link.com,2013-02-12 13:37:00,
2013-02-12 08:52:00,33.6,29.0,29.82,SW,225,4.2,-999.0,83,-99.99,,,0.00,Acu-Link.com,2013-02-12 13:52:00,
2013-02-12 09:08:00,34.2,29.0,29.80,West,270,6.3,-999.0,81,-99.99,,,0.00,Acu-Link.com,2013-02-12 14:08:00,
2013-02-12 09:23:00,35.1,28.9,29.80,West,270,4.7,-999.0,78,-99.99,,,0.00,Acu-Link.com,2013-02-12 14:23:00,
2013-02-12 09:38:00,36.1,29.3,29.81,SW,225,6.8,-999.0,76,-99.99,,,0.00,Acu-Link.com,2013-02-12 14:38:00,
2013-02-12 09:53:00,36.3,29.1,29.81,SW,225,5.3,-999.0,75,-99.99,,,0.00,Acu-Link.com,2013-02-12 14:53:00,
2013-02-12 10:08:00,35.6,28.5,29.82,WNW,292,3.7,-999.0,75,-99.99,,,0.00,Acu-Link.com,2013-02-12 15:08:00,
2013-02-12 10:23:00,35.2,28.1,29.81,SSW,202,5.3,-999.0,75,-99.99,,,0.00,Acu-Link.com,2013-02-12 15:23:00,
2013-02-12 10:39:00,35.4,28.3,29.83,WNW,292,7.3,-999.0,75,-99.99,,,0.00,Acu-Link.com,2013-02-12 15:39:00,
2013-02-12 10:54:00,35.4,28.0,29.82,West,270,3.2,-999.0,74,-99.99,,,0.00,Acu-Link.com,2013-02-12 15:54:00,
2013-02-12 11:09:00,36.3,28.8,29.82,West,270,4.2,-999.0,74,-99.99,,,0.00,Acu-Link.com,2013-02-12 16:09:00,
2013-02-12 11:24:00,36.1,28.3,29.83,WNW,292,4.7,-999.0,73,-99.99,,,0.00,Acu-Link.com,2013-02-12 16:24:00,
2013-02-12 11:39:00,36.5,28.3,29.83,SSW,202,4.7,-999.0,72,-99.99,,,0.00,Acu-Link.com,2013-02-12 16:39:00,
2013-02-12 11:54:00,35.6,27.8,29.83,West,270,3.7,-999.0,73,-99.99,,,0.00,Acu-Link.com,2013-02-12 16:54:00,
2013-02-12 12:10:00,35.2,27.4,29.83,SW,225,3.7,-999.0,73,-99.99,,,0.00,Acu-Link.com,2013-02-12 17:10:00,
2013-02-12 12:25:00,35.6,28.1,29.84,West,270,3.2,-999.0,74,-99.99,,,0.00,Acu-Link.com,2013-02-12 17:25:00,
2013-02-12 12:40:00,36.0,28.5,29.84,West,270,3.2,-999.0,74,-99.99,,,0.00,Acu-Link.com,2013-02-12 17:40:00,
2013-02-12 12:55:00,35.6,28.5,29.83,WSW,247,6.8,-999.0,75,-99.99,,,0.00,Acu-Link.com,2013-02-12 17:55:00,
2013-02-12 13:10:00,36.5,28.0,29.82,West,270,4.2,-999.0,71,-99.99,,,0.00,Acu-Link.com,2013-02-12 18:10:00,
2013-02-12 13:25:00,36.1,27.6,29.81,SW,225,7.8,-999.0,71,-99.99,,,0.00,Acu-Link.com,2013-02-12 18:25:00,
2013-02-12 13:41:00,35.1,27.0,29.82,West,270,3.2,-999.0,72,-99.99,,,0.00,Acu-Link.com,2013-02-12 18:41:00,
2013-02-12 13:56:00,34.9,26.8,29.81,SW,225,2.7,-999.0,72,-99.99,,,0.00,Acu-Link.com,2013-02-12 18:56:00,
2013-02-12 14:11:00,35.1,27.0,29.81,WNW,292,4.2,-999.0,72,-99.99,,,0.00,Acu-Link.com,2013-02-12 19:11:00,
2013-02-12 14:26:00,34.3,27.5,29.82,WSW,247,4.7,-999.0,76,-99.99,,,0.00,Acu-Link.com,2013-02-12 19:26:00,
2013-02-12 14:42:00,34.0,27.2,29.81,West,270,2.7,-999.0,76,-99.99,,,0.00,Acu-Link.com,2013-02-12 19:42:00,
2013-02-12 14:57:00,34.0,27.2,29.80,West,270,4.2,-999.0,76,-99.99,,,0.00,Acu-Link.com,2013-02-12 19:57:00,
2013-02-12 15:12:00,33.6,26.5,29.81,WSW,247,6.3,-999.0,75,-99.99,,,0.00,Acu-Link.com,2013-02-12 20:12:00,
2013-02-12 15:27:00,33.4,26.0,29.80,WSW,247,2.2,-999.0,74,-99.99,,,0.00,Acu-Link.com,2013-02-12 20:27:00,
2013-02-12 15:43:00,33.4,25.7,29.79,West,270,5.3,-999.0,73,-99.99,,,0.00,Acu-Link.com,2013-02-12 20:43:00,
2013-02-12 15:58:00,33.1,26.1,29.80,NW,315,2.2,-999.0,75,-99.99,,,0.00,Acu-Link.com,2013-02-12 20:58:00,
2013-02-12 16:13:00,32.9,25.9,29.79,West,270,2.2,-999.0,75,-99.99,,,0.00,Acu-Link.com,2013-02-12 21:13:00,
2013-02-12 16:28:00,32.4,25.4,29.81,WSW,247,3.7,-999.0,75,-99.99,,,0.00,Acu-Link.com,2013-02-12 21:28:00,
2013-02-12 16:44:00,32.0,25.3,29.79,West,270,4.2,-999.0,76,-99.99,,,0.00,Acu-Link.com,2013-02-12 21:44:00,
2013-02-12 16:59:00,32.0,25.6,29.80,SSW,202,4.7,-999.0,77,-99.99,,,0.00,Acu-Link.com,2013-02-12 21:59:00,
2013-02-12 17:14:00,32.2,25.8,29.82,NW,315,2.2,-999.0,77,-99.99,,,0.00,Acu-Link.com,2013-02-12 22:14:00,
2013-02-12 17:29:00,31.8,25.4,29.81,WSW,247,4.2,-999.0,77,-99.99,,,0.00,Acu-Link.com,2013-02-12 22:29:00,
2013-02-12 17:45:00,31.6,26.7,29.81,SW,225,4.2,-999.0,82,-99.99,,,0.00,Acu-Link.com,2013-02-12 22:45:00,
2013-02-12 18:00:00,31.5,26.7,29.82,WSW,247,5.3,-999.0,82,-99.99,,,0.00,Acu-Link.com,2013-02-12 23:00:00,
2013-02-12 18:15:00,31.5,26.9,29.82,West,270,4.7,-999.0,83,-99.99,,,0.00,Acu-Link.com,2013-02-12 23:15:00,
2013-02-12 18:30:00,31.5,27.2,29.83,West,270,5.8,-999.0,84,-99.99,,,0.00,Acu-Link.com,2013-02-12 23:30:00,
2013-02-12 18:45:00,31.5,27.2,29.84,SSW,202,3.7,-999.0,84,-99.99,,,0.00,Acu-Link.com,2013-02-12 23:45:00,
2013-02-12 19:00:00,31.3,27.0,29.84,West,270,4.2,-999.0,84,-99.99,,,0.00,Acu-Link.com,2013-02-13 00:00:00,
2013-02-12 19:16:00,31.3,27.0,29.83,WSW,247,7.3,-999.0,84,-99.99,,,0.00,Acu-Link.com,2013-02-13 00:16:00,
2013-02-12 19:31:00,31.3,27.3,29.85,West,270,5.3,-999.0,85,-99.99,,,0.00,Acu-Link.com,2013-02-13 00:31:00,
2013-02-12 19:46:00,31.3,27.0,29.86,SW,225,3.2,-999.0,84,-99.99,,,0.00,Acu-Link.com,2013-02-13 00:46:00,
2013-02-12 20:01:00,31.3,26.7,29.85,West,270,1.7,-999.0,83,-99.99,,,0.00,Acu-Link.com,2013-02-13 01:01:00,
2013-02-12 20:16:00,31.3,26.2,29.85,West,270,2.7,-999.0,81,-99.99,,,0.00,Acu-Link.com,2013-02-13 01:16:00,
2013-02-12 20:32:00,31.3,25.9,29.85,WNW,292,2.2,-999.0,80,-99.99,,,0.00,Acu-Link.com,2013-02-13 01:32:00,
2013-02-12 20:47:00,31.3,25.6,29.84,SW,225,2.7,-999.0,79,-99.99,,,0.00,Acu-Link.com,2013-02-13 01:47:00,
2013-02-12 21:03:00,31.1,25.4,29.85,SW,225,2.2,-999.0,79,-99.99,,,0.00,Acu-Link.com,2013-02-13 02:03:00,
2013-02-12 21:18:00,30.9,25.8,29.84,West,270,1.7,-999.0,81,-99.99,,,0.00,Acu-Link.com,2013-02-13 02:18:00,
2013-02-12 21:33:00,30.9,26.4,29.83,WSW,247,2.7,-999.0,83,-99.99,,,0.00,Acu-Link.com,2013-02-13 02:33:00,
2013-02-12 21:48:00,30.9,26.4,29.83,West,270,2.7,-999.0,83,-99.99,,,0.00,Acu-Link.com,2013-02-13 02:48:00,
2013-02-12 22:04:00,30.9,26.4,29.82,West,270,2.2,-999.0,83,-99.99,,,0.00,Acu-Link.com,2013-02-13 03:04:00,
2013-02-12 22:19:00,30.7,26.2,29.81,SW,225,1.1,-999.0,83,-99.99,,,0.00,Acu-Link.com,2013-02-13 03:19:00,
2013-02-12 22:34:00,30.7,26.4,29.82,WNW,292,0.0,-999.0,84,-99.99,,,0.00,Acu-Link.com,2013-02-13 03:34:00,
2013-02-12 22:50:00,30.7,26.7,29.82,WSW,247,0.0,-999.0,85,-99.99,,,0.00,Acu-Link.com,2013-02-13 03:50:00,
2013-02-12 23:05:00,30.6,26.1,29.81,WSW,247,2.2,-999.0,83,-99.99,,,0.00,Acu-Link.com,2013-02-13 04:05:00,
2013-02-12 23:20:00,30.6,24.3,29.80,West,270,2.2,-999.0,77,-99.99,,,0.00,Acu-Link.com,2013-02-13 04:20:00,
2013-02-12 23:36:00,30.7,24.4,29.80,WSW,247,2.2,-999.0,77,-99.99,,,0.00,Acu-Link.com,2013-02-13 04:36:00,
2013-02-12 23:51:00,30.7,24.0,29.80,West,270,3.7,-999.0,76,-99.99,,,0.00,Acu-Link.com,2013-02-13 04:51:00,